Wiener Neustadt West Airport LOXN

Flugplatz Daten

Name: Wiener Neustadt West Airport

Ident: LOXN

Lat: 47,84000015

Long: 16,22170067

Platzhöhe: 935 ft

IataCode:

City: Wiener Neustadt

Metar

2012/09/10 08:20
LOXN 100820Z 11006KT 50KM SCT300CI 24/14 Q1019 RMK SCT

Taf

Gewünschte Webcam nicht vorhanden? Dann fügen Sie eine hinzu. Sie wird dann so schnell wie möglich freigeschaltet
Url: Title: